createdAt,value
2023-02-05T00:00:00.462Z,102685.16
2023-02-05T00:02:26.787Z,102676.06
2023-02-05T00:04:53.605Z,102679.44
2023-02-05T00:07:19.924Z,102675.66
2023-02-05T00:09:46.250Z,102673.97
2023-02-05T00:12:12.566Z,102665.09
2023-02-05T00:14:38.905Z,102666.38
2023-02-05T00:17:05.212Z,102663.16
2023-02-05T00:19:31.521Z,102656.16
2023-02-05T00:21:57.859Z,102665.19
2023-02-05T00:24:24.214Z,102666.59
2023-02-05T00:26:50.572Z,102673.75
2023-02-05T00:29:16.880Z,102662.22
2023-02-05T00:31:43.306Z,102663.25
2023-02-05T00:34:09.695Z,102648.50
2023-02-05T00:36:36.064Z,102648.50
2023-02-05T00:39:02.384Z,102651.84
2023-02-05T00:41:28.742Z,102654.41
2023-02-05T00:43:55.054Z,102646.81
2023-02-05T00:46:21.409Z,102659.84
2023-02-05T00:48:47.775Z,102668.38
2023-02-05T00:51:14.111Z,102672.19
2023-02-05T00:53:40.425Z,102664.56
2023-02-05T00:56:06.747Z,102668.31
2023-02-05T00:58:33.241Z,102680.94
2023-02-05T01:00:59.635Z,102669.12
2023-02-05T01:03:25.962Z,102673.97
2023-02-05T01:05:52.294Z,102675.59
2023-02-05T01:08:18.677Z,102673.03
2023-02-05T01:10:45.016Z,102668.66
2023-02-05T01:13:11.397Z,102671.84
2023-02-05T01:15:37.913Z,102668.28
2023-02-05T01:18:04.275Z,102681.59
2023-02-05T01:20:30.604Z,102681.22
2023-02-05T01:22:56.919Z,102677.97
2023-02-05T01:25:23.245Z,102683.44
2023-02-05T01:27:49.591Z,102680.66
2023-02-05T01:30:15.943Z,102685.16
2023-02-05T01:32:42.534Z,102675.28
2023-02-05T01:35:08.873Z,102678.19
2023-02-05T01:37:35.207Z,102669.00
2023-02-05T01:40:01.647Z,102674.84
2023-02-05T01:42:27.993Z,102661.72
2023-02-05T01:44:54.331Z,102658.28
2023-02-05T01:47:20.678Z,102650.94
2023-02-05T01:49:47.070Z,102656.34
2023-02-05T01:52:13.456Z,102644.50
2023-02-05T01:54:39.780Z,102640.72
2023-02-05T01:57:06.095Z,102641.06
2023-02-05T01:59:32.440Z,102644.19
2023-02-05T02:01:58.838Z,102634.94
2023-02-05T02:04:25.177Z,102632.34
2023-02-05T02:06:51.498Z,102624.72
2023-02-05T02:09:17.853Z,102638.00
2023-02-05T02:11:44.180Z,102629.19
2023-02-05T02:14:10.543Z,102629.34
2023-02-05T02:16:36.884Z,102614.84
2023-02-05T02:19:03.220Z,102605.81
2023-02-05T02:21:29.605Z,102605.09
2023-02-05T02:23:55.931Z,102611.84
2023-02-05T02:26:22.250Z,102600.47
2023-02-05T02:28:48.566Z,102591.44
2023-02-05T02:31:15.018Z,102589.09
2023-02-05T02:33:41.348Z,102585.00
2023-02-05T02:36:07.648Z,102583.69
2023-02-05T02:38:34.015Z,102574.38
2023-02-05T02:41:00.800Z,102577.78
2023-02-05T02:43:27.121Z,102578.22
2023-02-05T02:45:53.465Z,102577.84
2023-02-05T02:48:19.870Z,102578.03
2023-02-05T02:50:46.187Z,102566.03
2023-02-05T02:53:12.515Z,102568.34
2023-02-05T02:55:38.901Z,102565.69
2023-02-05T02:58:05.248Z,102568.00
2023-02-05T03:00:31.607Z,102565.16
2023-02-05T03:02:57.924Z,102564.75
2023-02-05T03:05:24.268Z,102554.44
2023-02-05T03:07:50.868Z,102543.28
2023-02-05T03:10:17.165Z,102537.41
2023-02-05T03:12:44.018Z,102554.38
2023-02-05T03:15:10.360Z,102543.62
2023-02-05T03:17:36.681Z,102549.28
2023-02-05T03:20:03.072Z,102541.22
2023-02-05T03:22:29.381Z,102548.41
2023-02-05T03:24:55.712Z,102547.34
2023-02-05T03:27:22.187Z,102541.38
2023-02-05T03:29:48.516Z,102541.38
2023-02-05T03:32:14.852Z,102546.41
2023-02-05T03:34:41.175Z,102544.00
2023-02-05T03:37:09.479Z,102543.62
2023-02-05T03:39:35.841Z,102549.47
2023-02-05T03:42:02.184Z,102546.00
2023-02-05T03:44:28.482Z,102550.97
2023-02-05T03:46:54.807Z,102546.28
2023-02-05T03:49:21.153Z,102539.72
2023-02-05T03:51:47.522Z,102540.19
2023-02-05T03:54:13.832Z,102543.22
2023-02-05T03:56:40.152Z,102530.22
2023-02-05T03:59:06.962Z,102547.47
2023-02-05T04:01:33.396Z,102557.50
2023-02-05T04:03:59.737Z,102548.47
2023-02-05T04:06:26.336Z,102554.88
2023-02-05T04:08:52.641Z,102557.81
2023-02-05T04:11:19.000Z,102555.75
2023-02-05T04:13:45.320Z,102545.31
2023-02-05T04:16:11.689Z,102541.69
2023-02-05T04:18:38.001Z,102547.75
2023-02-05T04:21:04.398Z,102553.69
2023-02-05T04:23:30.701Z,102542.50
2023-02-05T04:25:57.018Z,102559.53
2023-02-05T04:28:23.366Z,102561.25
2023-02-05T04:30:49.776Z,102557.75
2023-02-05T04:33:16.185Z,102559.63
2023-02-05T04:35:42.514Z,102557.28
2023-02-05T04:38:08.831Z,102559.47
2023-02-05T04:40:35.159Z,102563.22
2023-02-05T04:43:01.474Z,102565.75
2023-02-05T04:45:31.418Z,102569.72
2023-02-05T04:47:57.940Z,102561.34
2023-02-05T04:50:24.243Z,102558.81
2023-02-05T04:52:50.553Z,102560.31
2023-02-05T04:55:16.872Z,102564.28
2023-02-05T04:57:43.226Z,102555.91
2023-02-05T05:00:09.540Z,102567.09
2023-02-05T05:02:35.876Z,102569.34
2023-02-05T05:05:02.234Z,102566.25
2023-02-05T05:07:28.543Z,102574.16
2023-02-05T05:09:54.836Z,102567.84
2023-02-05T05:12:21.157Z,102579.50
2023-02-05T05:14:47.459Z,102573.03
2023-02-05T05:17:14.810Z,102570.28
2023-02-05T05:19:41.148Z,102580.62
2023-02-05T05:22:07.516Z,102579.03
2023-02-05T05:24:33.933Z,102583.81
2023-02-05T05:27:00.281Z,102571.47
2023-02-05T05:29:26.637Z,102574.69
2023-02-05T05:31:53.219Z,102582.03
2023-02-05T05:34:19.779Z,102596.22
2023-02-05T05:36:47.386Z,102603.19
2023-02-05T05:39:32.689Z,102608.53
2023-02-05T05:42:17.595Z,102596.59
2023-02-05T05:44:43.947Z,102599.00
2023-02-05T05:47:10.273Z,102601.53
2023-02-05T05:49:36.600Z,102597.56
2023-02-05T05:52:02.904Z,102592.50
2023-02-05T05:54:29.236Z,102589.78
2023-02-05T05:56:55.607Z,102594.00
2023-02-05T05:59:21.917Z,102593.81
2023-02-05T06:01:48.254Z,102588.09
2023-02-05T06:04:14.690Z,102592.50
2023-02-05T06:06:41.966Z,102587.69
2023-02-05T06:09:08.269Z,102590.75
2023-02-05T06:11:34.600Z,102599.87
2023-02-05T06:14:00.995Z,102594.00
2023-02-05T06:16:27.342Z,102596.03
2023-02-05T06:18:53.712Z,102598.03
2023-02-05T06:21:20.028Z,102599.47
2023-02-05T06:23:46.355Z,102597.00
2023-02-05T06:26:12.678Z,102594.25
2023-02-05T06:28:39.008Z,102596.16
2023-02-05T06:31:05.463Z,102595.41
2023-02-05T06:33:31.834Z,102583.16
2023-02-05T06:35:58.162Z,102589.28
2023-02-05T06:38:24.468Z,102600.38
2023-02-05T06:40:50.903Z,102593.22
2023-02-05T06:43:17.222Z,102592.37
2023-02-05T06:45:43.560Z,102602.78
2023-02-05T06:48:09.893Z,102602.03
2023-02-05T06:50:36.211Z,102605.66
2023-02-05T06:53:02.604Z,102614.09
2023-02-05T06:55:28.966Z,102616.72
2023-02-05T06:57:55.294Z,102610.72
2023-02-05T07:00:21.631Z,102604.88
2023-02-05T07:02:47.970Z,102612.78
2023-02-05T07:05:14.296Z,102614.94
2023-02-05T07:07:40.705Z,102613.41
2023-02-05T07:10:07.114Z,102616.41
2023-02-05T07:12:33.507Z,102609.78
2023-02-05T07:14:59.849Z,102605.06
2023-02-05T07:17:26.268Z,102603.31
2023-02-05T07:19:52.652Z,102596.41
2023-02-05T07:22:18.999Z,102608.47
2023-02-05T07:24:45.324Z,102610.53
2023-02-05T07:27:11.703Z,102610.81
2023-02-05T07:29:38.042Z,102598.44
2023-02-05T07:32:04.414Z,102587.03
2023-02-05T07:34:30.761Z,102588.69
2023-02-05T07:36:57.058Z,102604.75
2023-02-05T07:39:23.390Z,102605.59
2023-02-05T07:41:51.347Z,102605.69
2023-02-05T07:44:17.688Z,102602.00
2023-02-05T07:46:44.012Z,102607.69
2023-02-05T07:49:11.588Z,102599.91
2023-02-05T07:51:37.965Z,102601.44
2023-02-05T07:54:04.286Z,102597.22
2023-02-05T07:56:30.614Z,102592.75
2023-02-05T07:58:56.950Z,102599.09
2023-02-05T08:01:23.316Z,102597.78
2023-02-05T08:03:49.677Z,102608.47
2023-02-05T08:06:16.065Z,102621.03
2023-02-05T08:08:42.442Z,102618.00
2023-02-05T08:11:08.775Z,102621.16
2023-02-05T08:13:35.096Z,102605.47
2023-02-05T08:16:01.430Z,102612.44
2023-02-05T08:18:27.799Z,102611.22
2023-02-05T08:20:54.138Z,102605.09
2023-02-05T08:23:20.527Z,102594.28
2023-02-05T08:25:46.876Z,102590.84
2023-02-05T08:28:13.237Z,102582.94
2023-02-05T08:30:39.592Z,102583.84
2023-02-05T08:33:05.908Z,102582.13
2023-02-05T08:35:32.547Z,102580.72
2023-02-05T08:37:59.116Z,102559.59
2023-02-05T08:40:25.474Z,102568.34
2023-02-05T08:42:56.802Z,102567.59
2023-02-05T08:45:23.281Z,102557.69
2023-02-05T08:47:50.180Z,102551.81
2023-02-05T08:50:16.492Z,102539.38
2023-02-05T08:52:42.821Z,102537.16
2023-02-05T08:55:09.185Z,102541.16
2023-02-05T08:57:35.528Z,102531.87
2023-02-05T09:00:01.885Z,102530.22
2023-02-05T09:02:31.102Z,102536.72
2023-02-05T09:05:08.064Z,102530.63
2023-02-05T09:07:35.464Z,102526.66
2023-02-05T09:10:01.804Z,102527.06
2023-02-05T09:12:28.127Z,102534.87
2023-02-05T09:14:54.439Z,102521.53
2023-02-05T09:17:20.780Z,102518.41
2023-02-05T09:19:47.109Z,102518.22
2023-02-05T09:22:13.417Z,102514.44
2023-02-05T09:24:39.758Z,102517.19
2023-02-05T09:27:06.746Z,102512.75
2023-02-05T09:29:33.172Z,102519.69
2023-02-05T09:31:59.517Z,102511.47
2023-02-05T09:34:25.998Z,102518.66
2023-02-05T09:36:52.302Z,102507.03
2023-02-05T09:39:47.004Z,102511.69
2023-02-05T09:42:05.711Z,102513.38
2023-02-05T09:44:32.019Z,102506.66
2023-02-05T09:46:58.881Z,102503.88
2023-02-05T09:49:25.251Z,102493.16
2023-02-05T09:51:51.618Z,102502.59
2023-02-05T09:54:17.996Z,102505.13
2023-02-05T09:56:44.316Z,102495.16
2023-02-05T09:59:10.739Z,102493.81
2023-02-05T10:01:37.194Z,102486.47
2023-02-05T10:04:04.146Z,102491.72
2023-02-05T10:06:30.494Z,102486.50
2023-02-05T10:08:56.833Z,102494.91
2023-02-05T10:11:23.161Z,102490.84
2023-02-05T10:13:49.474Z,102483.28
2023-02-05T10:16:16.084Z,102481.19
2023-02-05T10:18:42.475Z,102472.97
2023-02-05T10:21:10.232Z,102471.88
2023-02-05T10:23:36.565Z,102470.03
2023-02-05T10:26:02.899Z,102468.84
2023-02-05T10:28:29.274Z,102468.50
2023-02-05T10:30:56.340Z,102467.66
2023-02-05T10:33:22.760Z,102465.47
2023-02-05T10:35:49.084Z,102463.16
2023-02-05T10:38:15.422Z,102468.75
2023-02-05T10:40:44.143Z,102463.75
2023-02-05T10:43:10.466Z,102459.19
2023-02-05T10:45:37.201Z,102470.72
2023-02-05T10:48:03.558Z,102464.28
2023-02-05T10:50:29.862Z,102472.50
2023-02-05T10:52:56.276Z,102462.09
2023-02-05T10:55:22.602Z,102455.22
2023-02-05T10:57:48.924Z,102444.06
2023-02-05T11:00:15.503Z,102439.19
2023-02-05T11:02:41.895Z,102434.56
2023-02-05T11:05:10.236Z,102433.03
2023-02-05T11:07:36.557Z,102441.31
2023-02-05T11:10:02.880Z,102436.19
2023-02-05T11:12:29.219Z,102433.63
2023-02-05T11:14:55.530Z,102437.31
2023-02-05T11:17:21.873Z,102430.28
2023-02-05T11:19:48.209Z,102424.94
2023-02-05T11:22:14.524Z,102419.19
2023-02-05T11:24:40.930Z,102415.59
2023-02-05T11:27:07.271Z,102412.84
2023-02-05T11:29:33.590Z,102421.44
2023-02-05T11:32:00.084Z,102415.47
2023-02-05T11:34:26.525Z,102418.56
2023-02-05T11:36:52.858Z,102413.78
2023-02-05T11:39:22.211Z,102418.34
2023-02-05T11:41:48.668Z,102418.50
2023-02-05T11:44:15.023Z,102413.91
2023-02-05T11:46:41.343Z,102405.84
2023-02-05T11:49:07.835Z,102402.09
2023-02-05T11:51:34.145Z,102399.97
2023-02-05T11:54:00.512Z,102389.41
2023-02-05T11:56:26.831Z,102399.19
2023-02-05T11:58:53.152Z,102388.09
2023-02-05T12:01:19.789Z,102383.50
2023-02-05T12:03:46.101Z,102393.38
2023-02-05T12:06:12.417Z,102386.41
2023-02-05T12:08:38.849Z,102383.78
2023-02-05T12:11:05.173Z,102376.63
2023-02-05T12:13:31.476Z,102390.44
2023-02-05T12:15:57.828Z,102390.28
2023-02-05T12:18:24.217Z,102391.44
2023-02-05T12:20:50.580Z,102394.62
2023-02-05T12:23:16.976Z,102386.19
2023-02-05T12:25:43.336Z,102382.09
2023-02-05T12:28:09.726Z,102389.59
2023-02-05T12:30:36.125Z,102387.56
2023-02-05T12:33:03.327Z,102376.63
2023-02-05T12:35:29.645Z,102375.28
2023-02-05T12:37:55.941Z,102368.41
2023-02-05T12:40:22.265Z,102366.06
2023-02-05T12:42:48.569Z,102365.78
2023-02-05T12:45:14.868Z,102376.31
2023-02-05T12:47:41.176Z,102366.88
2023-02-05T12:50:07.989Z,102376.75
2023-02-05T12:52:34.305Z,102375.50
2023-02-05T12:55:00.682Z,102378.41
2023-02-05T12:57:27.007Z,102368.41
2023-02-05T12:59:53.341Z,102370.00
2023-02-05T13:02:19.703Z,102369.06
2023-02-05T13:04:46.065Z,102367.12
2023-02-05T13:07:12.504Z,102368.03
2023-02-05T13:09:38.845Z,102362.06
2023-02-05T13:12:06.242Z,102361.75
2023-02-05T13:14:32.670Z,102355.84
2023-02-05T13:16:59.016Z,102352.25
2023-02-05T13:19:29.190Z,102353.75
2023-02-05T13:22:14.519Z,102356.56
2023-02-05T13:24:59.410Z,102349.66
2023-02-05T13:27:44.362Z,102347.19
2023-02-05T13:30:10.814Z,102347.44
2023-02-05T13:32:37.152Z,102344.91
2023-02-05T13:35:03.493Z,102339.34
2023-02-05T13:37:29.798Z,102343.41
2023-02-05T13:39:56.133Z,102340.03
2023-02-05T13:42:22.446Z,102337.19
2023-02-05T13:44:48.754Z,102338.22
2023-02-05T13:47:18.403Z,102342.72
2023-02-05T13:49:44.750Z,102349.44
2023-02-05T13:52:11.074Z,102350.72
2023-02-05T13:54:37.402Z,102355.06
2023-02-05T13:57:03.725Z,102349.22
2023-02-05T13:59:33.158Z,102359.69
2023-02-05T14:02:00.531Z,102371.22
2023-02-05T14:06:59.290Z,102378.28
2023-02-05T14:09:25.697Z,102379.94
2023-02-05T14:11:55.159Z,102367.16
2023-02-05T14:14:21.493Z,102372.03
2023-02-05T14:16:52.480Z,102372.59
2023-02-05T14:19:21.885Z,102371.81
2023-02-05T14:21:48.192Z,102368.41
2023-02-05T14:24:14.505Z,102376.56
2023-02-05T14:26:40.824Z,102368.53
2023-02-05T14:29:07.147Z,102344.87
2023-02-05T14:31:33.511Z,102334.81
2023-02-05T14:33:59.851Z,102330.81
2023-02-05T14:36:26.174Z,102334.78
2023-02-05T14:38:52.506Z,102334.91
2023-02-05T14:41:21.825Z,102344.78
2023-02-05T14:43:51.167Z,102351.03
2023-02-05T14:46:17.498Z,102351.09
2023-02-05T14:48:43.829Z,102366.38
2023-02-05T14:51:10.198Z,102369.53
2023-02-05T14:53:36.606Z,102361.53
2023-02-05T14:56:02.984Z,102359.66
2023-02-05T14:58:29.312Z,102370.84
2023-02-05T15:00:55.651Z,102377.88
2023-02-05T15:03:22.037Z,102380.97
2023-02-05T15:05:48.940Z,102384.78
2023-02-05T15:08:15.557Z,102390.16
2023-02-05T15:10:41.882Z,102386.97
2023-02-05T15:13:08.210Z,102384.66
2023-02-05T15:15:35.721Z,102377.06
2023-02-05T15:18:02.350Z,102372.66
2023-02-05T15:20:28.676Z,102380.53
2023-02-05T15:22:55.038Z,102391.53
2023-02-05T15:25:21.378Z,102393.59
2023-02-05T15:27:49.794Z,102393.75
2023-02-05T15:30:16.124Z,102387.88
2023-02-05T15:32:42.453Z,102389.81
2023-02-05T15:35:08.797Z,102398.12
2023-02-05T15:37:35.107Z,102394.44
2023-02-05T15:40:01.430Z,102395.47
2023-02-05T15:44:59.195Z,102371.28
2023-02-05T15:47:25.508Z,102364.41
2023-02-05T15:49:51.972Z,102368.09
2023-02-05T15:52:18.296Z,102368.19
2023-02-05T15:54:44.602Z,102363.66
2023-02-05T15:57:10.918Z,102363.41
2023-02-05T15:59:37.261Z,102363.56
2023-02-05T16:02:03.645Z,102376.09
2023-02-05T16:04:30.056Z,102380.00
2023-02-05T16:06:56.372Z,102385.53
2023-02-05T16:09:22.765Z,102374.72
2023-02-05T16:11:49.117Z,102381.78
2023-02-05T16:14:15.460Z,102376.13
2023-02-05T16:16:41.782Z,102390.38
2023-02-05T16:19:09.025Z,102395.44
2023-02-05T16:21:35.344Z,102395.31
2023-02-05T16:24:01.641Z,102390.22
2023-02-05T16:26:27.960Z,102392.97
2023-02-05T16:28:54.603Z,102401.41
2023-02-05T16:31:21.038Z,102403.16
2023-02-05T16:33:47.488Z,102404.09
2023-02-05T16:36:13.806Z,102406.22
2023-02-05T16:38:40.142Z,102414.59
2023-02-05T16:41:06.449Z,102423.31
2023-02-05T16:43:32.927Z,102433.34
2023-02-05T16:45:59.279Z,102445.19
2023-02-05T16:48:26.344Z,102443.06
2023-02-05T16:50:53.629Z,102446.50
2023-02-05T16:53:19.941Z,102444.06
2023-02-05T16:55:46.255Z,102447.16
2023-02-05T16:58:12.578Z,102455.31
2023-02-05T17:00:39.112Z,102457.59
2023-02-05T17:03:05.511Z,102456.09
2023-02-05T17:05:31.878Z,102448.47
2023-02-05T17:07:58.342Z,102453.44
2023-02-05T17:10:24.725Z,102456.69
2023-02-05T17:15:22.139Z,102466.84
2023-02-05T17:17:48.451Z,102467.31
2023-02-05T17:20:14.806Z,102461.50
2023-02-05T17:22:41.134Z,102461.00
2023-02-05T17:25:07.953Z,102470.50
2023-02-05T17:27:35.797Z,102479.88
2023-02-05T17:30:02.121Z,102478.75
2023-02-05T17:32:29.454Z,102479.69
2023-02-05T17:34:55.788Z,102470.69
2023-02-05T17:37:22.081Z,102481.97
2023-02-05T17:39:49.866Z,102487.94
2023-02-05T17:42:16.285Z,102489.66
2023-02-05T17:44:42.614Z,102485.81
2023-02-05T17:47:09.055Z,102471.44
2023-02-05T17:49:35.456Z,102468.31
2023-02-05T17:52:01.818Z,102470.75
2023-02-05T17:54:28.274Z,102478.66
2023-02-05T17:56:54.787Z,102479.06
2023-02-05T17:59:21.313Z,102476.19
2023-02-05T18:01:47.659Z,102476.47
2023-02-05T18:04:14.307Z,102457.75
2023-02-05T18:06:44.093Z,102467.28
2023-02-05T18:09:10.521Z,102469.63
2023-02-05T18:11:36.869Z,102469.56
2023-02-05T18:14:05.080Z,102469.19
2023-02-05T18:16:31.504Z,102468.81
2023-02-05T18:18:58.365Z,102476.66
2023-02-05T18:21:24.918Z,102485.53
2023-02-05T18:23:52.611Z,102504.53
2023-02-05T18:26:18.918Z,102508.31
2023-02-05T18:28:46.783Z,102504.72
2023-02-05T18:31:13.232Z,102514.00
2023-02-05T18:33:39.645Z,102502.22
2023-02-05T18:36:07.252Z,102492.28
2023-02-05T18:38:33.566Z,102486.19
2023-02-05T18:40:59.872Z,102488.53
2023-02-05T18:43:26.200Z,102495.25
2023-02-05T18:45:52.590Z,102499.25
2023-02-05T18:48:18.933Z,102504.09
2023-02-05T18:50:45.251Z,102503.03
2023-02-05T18:53:11.711Z,102508.28
2023-02-05T18:55:38.070Z,102506.56
2023-02-05T18:58:04.518Z,102505.53
2023-02-05T19:00:31.928Z,102504.31
2023-02-05T19:02:58.290Z,102510.81
2023-02-05T19:05:24.627Z,102516.69
2023-02-05T19:07:50.983Z,102517.91
2023-02-05T19:10:17.334Z,102531.19
2023-02-05T19:12:47.038Z,102539.44
2023-02-05T19:15:13.363Z,102536.28
2023-02-05T19:17:39.671Z,102527.28
2023-02-05T19:20:06.086Z,102514.84
2023-02-05T19:22:36.027Z,102523.44
2023-02-05T19:25:02.385Z,102531.16
2023-02-05T19:27:28.717Z,102534.13
2023-02-05T19:29:55.071Z,102537.47
2023-02-05T19:32:21.418Z,102551.16
2023-02-05T19:34:47.726Z,102549.31
2023-02-05T19:37:14.092Z,102556.91
2023-02-05T19:39:40.421Z,102542.78
2023-02-05T19:42:07.225Z,102549.50
2023-02-05T19:44:33.580Z,102545.63
2023-02-05T19:46:59.894Z,102554.91
2023-02-05T19:49:26.216Z,102548.41
2023-02-05T19:51:54.105Z,102549.19
2023-02-05T19:54:21.698Z,102549.00
2023-02-05T19:56:48.235Z,102552.37
2023-02-05T19:59:16.853Z,102552.37
2023-02-05T20:01:46.523Z,102555.50
2023-02-05T20:04:12.936Z,102548.59
2023-02-05T20:06:39.460Z,102553.75
2023-02-05T20:09:10.745Z,102560.41
2023-02-05T20:11:37.199Z,102553.88
2023-02-05T20:14:03.544Z,102553.91
2023-02-05T20:16:29.924Z,102551.00
2023-02-05T20:18:56.349Z,102550.34
2023-02-05T20:21:22.713Z,102547.34
2023-02-05T20:23:49.095Z,102549.38
2023-02-05T20:26:18.907Z,102549.44
2023-02-05T20:29:04.257Z,102558.25
2023-02-05T20:31:33.451Z,102555.91
2023-02-05T20:34:00.184Z,102560.53
2023-02-05T20:36:26.514Z,102556.91
2023-02-05T20:38:52.825Z,102553.09
2023-02-05T20:41:19.124Z,102554.34
2023-02-05T20:43:45.566Z,102557.72
2023-02-05T20:46:11.923Z,102559.97
2023-02-05T20:48:38.274Z,102558.03
2023-02-05T20:51:04.595Z,102547.09
2023-02-05T20:53:33.995Z,102545.97
2023-02-05T20:56:00.334Z,102551.78
2023-02-05T20:58:26.679Z,102544.87
2023-02-05T21:00:53.312Z,102534.97
2023-02-05T21:03:19.639Z,102536.91
2023-02-05T21:05:45.966Z,102535.78
2023-02-05T21:08:12.303Z,102542.44
2023-02-05T21:10:38.727Z,102542.91
2023-02-05T21:13:05.046Z,102554.75
2023-02-05T21:15:31.503Z,102558.75
2023-02-05T21:17:57.814Z,102562.78
2023-02-05T21:20:24.132Z,102575.25
2023-02-05T21:22:50.459Z,102571.72
2023-02-05T21:25:16.822Z,102593.94
2023-02-05T21:27:43.354Z,102601.75
2023-02-05T21:30:10.916Z,102601.06
2023-02-05T21:32:37.241Z,102597.66
2023-02-05T21:35:03.565Z,102607.56
2023-02-05T21:37:29.890Z,102603.28
2023-02-05T21:40:08.404Z,102616.97
2023-02-05T21:42:35.791Z,102616.34
2023-02-05T22:01:57.500Z,102653.97
2023-02-05T22:04:23.867Z,102651.25
2023-02-05T22:06:50.217Z,102646.63
2023-02-05T22:09:16.895Z,102641.75
2023-02-05T22:11:43.338Z,102641.56
2023-02-05T22:14:09.725Z,102650.53
2023-02-05T22:16:36.143Z,102659.19
2023-02-05T22:19:02.724Z,102665.84
2023-02-05T22:21:29.074Z,102664.37
2023-02-05T22:23:55.454Z,102672.91
2023-02-05T22:26:21.839Z,102682.50
2023-02-05T22:28:48.271Z,102687.97
2023-02-05T22:31:14.672Z,102678.94
2023-02-05T22:33:41.042Z,102683.75
2023-02-05T22:36:07.368Z,102694.16
2023-02-05T22:38:33.680Z,102691.59
2023-02-05T22:40:59.993Z,102684.75
2023-02-05T22:43:26.438Z,102684.09
2023-02-05T22:45:52.841Z,102682.78
2023-02-05T22:48:19.171Z,102676.53
2023-02-05T22:50:45.555Z,102677.59
2023-02-05T22:53:11.864Z,102680.69
2023-02-05T22:55:38.185Z,102678.97
2023-02-05T22:58:04.490Z,102679.25
2023-02-05T23:00:30.821Z,102685.34
2023-02-05T23:02:57.833Z,102681.72
2023-02-05T23:05:24.178Z,102683.97
2023-02-05T23:07:50.561Z,102691.22
2023-02-05T23:10:16.860Z,102698.56
2023-02-05T23:12:43.162Z,102690.47
2023-02-05T23:15:09.482Z,102694.72
2023-02-05T23:17:36.239Z,102691.78
2023-02-05T23:20:02.543Z,102704.00
2023-02-05T23:22:28.861Z,102692.56
2023-02-05T23:24:55.165Z,102686.97
2023-02-05T23:27:21.494Z,102692.59
2023-02-05T23:29:47.818Z,102688.56
2023-02-05T23:32:15.137Z,102693.66
2023-02-05T23:34:41.473Z,102693.09
2023-02-05T23:37:07.792Z,102695.25
2023-02-05T23:39:34.105Z,102690.25
2023-02-05T23:42:00.419Z,102681.84
2023-02-05T23:44:26.735Z,102675.69
2023-02-05T23:46:53.041Z,102668.19
2023-02-05T23:49:21.884Z,102672.31
2023-02-05T23:51:48.296Z,102672.25
2023-02-05T23:54:14.596Z,102671.09
2023-02-05T23:56:40.971Z,102682.44
2023-02-05T23:59:07.338Z,102672.19
